Local Weather Observations
KPOV - Ravena/Portage, Ohio, USA
Distance from station: W 14mi, 23km
Updated: Mon, May-16-2022 2:35pm EDT
Mostly cloudy
Mostly cloudy
 Wind from WNW
Wind: WNW 10 mph , 17 km/h, Gust: 16 mph , 26 km/h
Temperature: 68°F , 20°C
Dew Point: 46°F , 8°C
Humidity: 46%
Barometer: 29.78 inHg , 1008.5 hPa
Clouds: Mostly cloudy
Visibility: 10 miles , 16 km
Cloud details: Mostly cloudy 3800 ft
2022/05/16 18:35 KPOV 161835Z AUTO 29009G14KT 10SM BKN038 20/08 A2978 RMK AO2 T01960077 PWINO
KYNG - Youngstown, Ohio, USA
Distance from station: ENE 16mi, 27km
Updated: Mon, May-16-2022 1:51pm EDT
Mostly cloudy
Mostly cloudy
 Wind from WNW
Wind: WNW 16 mph , 26 km/h, Gust: 23 mph , 37 km/h
Temperature: 64°F , 18°C
Dew Point: 54°F , 12°C
Humidity: 68%
Barometer: 29.76 inHg , 1007.8 hPa
Clouds: Mostly cloudy
Visibility: 10 miles , 16 km
Cloud details: Mostly cloudy 2100 ft
2022/05/16 17:51 KYNG 161751Z 29014G20KT 10SM BKN021 18/12 A2976 RMK AO2 SLP076 60027 T01830117 10183 20133 51005
 
KAKR - Akron (fulton), Ohio, USA
Distance from station: WSW 28mi, 45km
Updated: Mon, May-16-2022 1:54pm EDT
Mostly cloudy
Mostly cloudy
 Wind from W
Wind: W 13 mph , 20 km/h
Temperature: 68°F , 20°C
Dew Point: 50°F , 10°C
Humidity: 53%
Barometer: 29.78 inHg , 1008.5 hPa
Clouds: Mostly cloudy
Visibility: 10 miles , 16 km
Cloud details: Mostly cloudy 3900 ft
2022/05/16 17:54 KAKR 161754Z AUTO 28011KT 10SM BKN039 20/10 A2978 RMK AO2 SLP079 60003 T02000100 10211 20150 58003
KUCP - New Castle Muni, Pennsylvania, USA
Distance from station: ESE 31mi, 50km
Updated: Mon, May-16-2022 2:18pm EDT
Mostly cloudy
Mostly cloudy
 Wind from WNW
Wind: WNW 14 mph , 22 km/h, Gust: 21 mph , 33 km/h
Temperature: 63°F , 17°C
Dew Point: 54°F , 12°C
Humidity: 73%
Barometer: 29.76 inHg , 1007.8 hPa
Clouds: Mostly cloudy
Visibility: 10 miles , 16 km
Cloud details: Partly cloudy 2500 ft
Mostly cloudy 3400 ft
2022/05/16 18:18 KUCP 161818Z AUTO 30012G18KT 10SM SCT025 BKN034 17/12 A2976 RMK AO2
 
KCAK - Akron, Ohio, USA
Distance from station: SW 31mi, 51km
Updated: Mon, May-16-2022 1:51pm EDT
Mostly cloudy
Mostly cloudy
 Wind from NW
Wind: NW 15 mph , 24 km/h
Temperature: 68°F , 20°C
Dew Point: 52°F , 11°C
Humidity: 56%
Barometer: 29.79 inHg , 1008.8 hPa
Clouds: Mostly cloudy
Visibility: 10 miles , 16 km
Cloud details: Partly cloudy 3000 ft
Mostly cloudy 4600 ft
2022/05/16 17:51 KCAK 161751Z 31013KT 10SM SCT030 BKN046 20/11 A2979 RMK AO2 SLP080 60007 T02000106 10200 20139 50000